Terminal Aerodrome Forecast
Issued by NWS Sioux Falls, SD

Home | Current Version | Previous Version | Graphics & Text | Print | Product List | Glossary On
Versions: 1 2 3 4 5 6 7 8 9 10 11 12 13 14 15 16 17 18 19 20 21 22 23 24 25 26
000
FTUS43 KFSD 221131
TAFSUX
TAF
KSUX 221131Z 2212/2312 VRB03KT P6SM BKN250
     FM221600 15007KT P6SM BKN250
     FM222000 19011KT P6SM SCT100 BKN250
     FM230000 18009KT P6SM BKN100
     FM230900 12008KT P6SM BKN030=

USA.gov is the U.S. government's official web portal to all federal, state and local government web resources and services.